• Join FlightAware (Why Join?)
  • Login
  • US Flag 
03:58PM EDT


 

Airport Tracker/Info


-or-


 

Live Flight TrackerFlight Track Log ✈ JZA8180 ✈ 03-Jul-2013 ✈ CYVR - CYKA

Flight Track Log - Related Links

Times and Time Zones

All times are in EDT time to prevent confusion due to time zone crossing. See the JZA8180 flight status page for this flight to view local times or setup timezone preferences in your user account.

Time Position Orientation Groundspeed Altitude Reporting Facility
EDT Latitude Longitude Course Direction KTS MPH feet Rate Location/Type
04:02PM 49.1667 -123.2333 36° Northeast 130 150 1,600  Level Vancouver Center
04:03PM 49.1833 -123.2833 297° West 130 150 3,500 1,740 Climbing Vancouver Center
04:04PM 49.2167 -123.3167 327° Northwest 140 161 5,100 1,500 Climbing Vancouver Center
04:05PM 49.2500 -123.3167 360° North 150 173 6,600 1,200 Climbing Vancouver Center
04:06PM 49.2833 -123.2667 44° Northeast 170 196 7,500 1,020 Climbing Vancouver Center
04:07PM 49.3499 -122.8460 36° Northeast  Level FlightAware Approximate
04:07PM 49.3333 -123.2167 33° Northeast 200 230 8,700  Level Vancouver Center
04:08PM 49.4141 -122.7738 36° Northeast  Level FlightAware Approximate
04:08PM 49.3667 -123.1667 44° Northeast 200 230 9,700  Level Vancouver Center
04:09PM 49.4167 -123.0833 47° Northeast 210 242 10,700 1,020 Climbing Vancouver Center
04:10PM 49.4500 -123.0333 44° Northeast 210 242 11,800 1,020 Climbing Vancouver Center
04:11PM 49.5000 -122.9500 47° Northeast 210 242 12,800 900 Climbing Vancouver Center
04:12PM 49.5333 -122.9000 44° Northeast 210 242 13,600 840 Climbing Vancouver Center
04:13PM 49.5833 -122.8167 47° Northeast 230 265 14,500 900 Climbing Vancouver Center
04:14PM 49.6333 -122.7500 41° Northeast 230 265 15,400 840 Climbing Vancouver Center
04:15PM 49.6667 -122.6833 52° Northeast 230 265 16,200 780 Climbing Vancouver Center
04:16PM 49.7167 -122.6167 41° Northeast 230 265 17,000 420 Climbing Vancouver Center
04:17PM 49.7667 -122.5333 47° Northeast 240 276 17,100  Climbing Vancouver Center
04:18PM 49.8167 -122.4500 47° Northeast 260 299 17,100  Level Vancouver Center
04:19PM 49.8667 -122.3667 47° Northeast 280 322 17,100  Level Vancouver Center
04:20PM 49.9333 -122.2667 44° Northeast 280 322 17,100  Level Vancouver Center
04:21PM 49.9833 -122.1833 47° Northeast 290 334 17,100  Level Vancouver Center
04:22PM 50.0333 -122.1167 41° Northeast 290 334 17,100  Level Vancouver Center
04:23PM 50.1000 -122.0000 48° Northeast 290 334 17,100 -60 Level Vancouver Center
04:24PM 50.1333 -121.9167 58° Northeast 290 334 17,000 -60 Descending Vancouver Center
04:25PM 50.2000 -121.8500 33° Northeast 290 334 17,000  Level Vancouver Center
04:26PM 50.2500 -121.7333 56° Northeast 280 322 17,000 -60 Level Vancouver Center
04:27PM 50.3167 -121.6500 39° Northeast 280 322 16,900 -600 Descending Vancouver Center
04:28PM 50.3667 -121.5500 52° Northeast 300 345 15,800 -1,200 Descending Vancouver Center
04:29PM 50.4333 -121.4667 39° Northeast 310 357 14,500 -1,500 Descending Vancouver Center
04:30PM 50.4833 -121.3500 56° Northeast 310 357 12,900 -1,560 Descending Vancouver Center
04:31PM 50.5500 -121.2833 32° Northeast 290 334 11,400 -1,500 Descending Vancouver Center
04:32PM 50.6000 -121.1667 56° Northeast 290 334 10,000 -1,500 Descending Vancouver Center
04:33PM 50.6500 -121.0833 47° Northeast 270 311 8,500 -1,200 Descending Vancouver Center
04:34PM 50.6833 -121.0000 58° Northeast 240 276 7,600 -960 Descending Vancouver Center
04:35PM 50.7000 -120.9167 72° East 220 253 6,600 -900 Descending Vancouver Center
04:36PM 50.7333 -120.8500 52° Northeast 220 253 5,800 -1,140 Descending Vancouver Center
04:37PM 50.7333 -120.7333 90° East 220 253 4,400 -1,500 Descending Vancouver Center
04:38PM 50.7333 -120.6333 90° East 220 253 2,800 -960 Descending Vancouver Center
04:39PM 50.7167 -120.5500 108° East 210 242 2,500 -300 Descending Vancouver Center